Terminal Aerodrome Forecast
Issued by NWS Sioux Falls, SD

Home | Current Version | Previous Version | Text Only | Print | Product List | Glossary On
Versions: 1 2 3 4 5 6 7 8 9 10 11 12 13 14 15 16 17 18 19 20 21 22 23 24 25 26 27 28 29 30
000
FTUS43 KFSD 202322
TAFSUX
TAF
KSUX 202322Z 2100/2124 12007KT 3/4SM -RA BR OVC003
     FM210800 VRB03KT 3/4SM -RA BR OVC003
     FM211000 00000KT 1/2SM FG VCSH OVC003
      TEMPO 2110/2114 1/4SM FG OVC003
     FM211500 28005KT 1 1/2SM BR OVC003
     FM211900 27007KT 6SM BR OVC040=

USA.gov is the U.S. government's official web portal to all federal, state and local government web resources and services.